sensor_id;sensor_type;location;lat;lon;timestamp;P1;durP1;ratioP1;P2;durP2;ratioP2
23266;SDS011;11802;53.160;8.214;2023-04-25T00:00:35;21.77;;;4.57;;
23266;SDS011;11802;53.160;8.214;2023-04-25T00:03:00;19.43;;;5.00;;
23266;SDS011;11802;53.160;8.214;2023-04-25T00:05:26;22.83;;;4.30;;
23266;SDS011;11802;53.160;8.214;2023-04-25T00:07:52;24.70;;;5.63;;
23266;SDS011;11802;53.160;8.214;2023-04-25T00:10:18;17.60;;;4.87;;
23266;SDS011;11802;53.160;8.214;2023-04-25T00:12:44;23.43;;;4.93;;
23266;SDS011;11802;53.160;8.214;2023-04-25T00:15:10;23.00;;;5.10;;
23266;SDS011;11802;53.160;8.214;2023-04-25T00:17:36;16.50;;;3.63;;
23266;SDS011;11802;53.160;8.214;2023-04-25T00:20:03;19.60;;;4.20;;
23266;SDS011;11802;53.160;8.214;2023-04-25T00:22:34;20.83;;;4.97;;
23266;SDS011;11802;53.160;8.214;2023-04-25T00:25:02;18.70;;;3.77;;
23266;SDS011;11802;53.160;8.214;2023-04-25T00:27:31;17.67;;;4.23;;
23266;SDS011;11802;53.160;8.214;2023-04-25T00:29:57;17.80;;;4.80;;
23266;SDS011;11802;53.160;8.214;2023-04-25T00:32:22;24.67;;;5.47;;
23266;SDS011;11802;53.160;8.214;2023-04-25T00:34:48;16.87;;;4.93;;
23266;SDS011;11802;53.160;8.214;2023-04-25T00:37:13;16.63;;;3.50;;
23266;SDS011;11802;53.160;8.214;2023-04-25T00:39:39;16.40;;;4.17;;
23266;SDS011;11802;53.160;8.214;2023-04-25T00:42:04;19.50;;;4.00;;
23266;SDS011;11802;53.160;8.214;2023-04-25T00:44:30;15.77;;;3.53;;
23266;SDS011;11802;53.160;8.214;2023-04-25T00:46:57;19.10;;;4.93;;
23266;SDS011;11802;53.160;8.214;2023-04-25T00:49:22;17.10;;;4.00;;
23266;SDS011;11802;53.160;8.214;2023-04-25T00:51:48;22.13;;;5.23;;
23266;SDS011;11802;53.160;8.214;2023-04-25T00:54:14;20.20;;;4.57;;
23266;SDS011;11802;53.160;8.214;2023-04-25T00:56:40;17.80;;;4.23;;
23266;SDS011;11802;53.160;8.214;2023-04-25T00:59:07;15.87;;;3.70;;
23266;SDS011;11802;53.160;8.214;2023-04-25T01:01:34;17.03;;;4.50;;
23266;SDS011;11802;53.160;8.214;2023-04-25T01:04:00;21.33;;;4.60;;
23266;SDS011;11802;53.160;8.214;2023-04-25T01:06:26;19.33;;;4.00;;
23266;SDS011;11802;53.160;8.214;2023-04-25T01:08:52;18.87;;;4.03;;
23266;SDS011;11802;53.160;8.214;2023-04-25T01:11:18;21.33;;;4.40;;
23266;SDS011;11802;53.160;8.214;2023-04-25T01:13:44;18.73;;;4.53;;
23266;SDS011;11802;53.160;8.214;2023-04-25T01:16:10;21.37;;;4.13;;
23266;SDS011;11802;53.160;8.214;2023-04-25T01:18:36;18.23;;;4.47;;
23266;SDS011;11802;53.160;8.214;2023-04-25T01:21:07;20.13;;;4.47;;
23266;SDS011;11802;53.160;8.214;2023-04-25T01:23:34;17.33;;;4.07;;
23266;SDS011;11802;53.160;8.214;2023-04-25T01:26:01;19.87;;;5.03;;
23266;SDS011;11802;53.160;8.214;2023-04-25T01:28:27;22.13;;;3.93;;
23266;SDS011;11802;53.160;8.214;2023-04-25T01:30:53;22.67;;;5.30;;
23266;SDS011;11802;53.160;8.214;2023-04-25T01:33:20;18.13;;;3.93;;
23266;SDS011;11802;53.160;8.214;2023-04-25T01:35:46;17.27;;;4.07;;
23266;SDS011;11802;53.160;8.214;2023-04-25T01:38:12;18.17;;;4.03;;
23266;SDS011;11802;53.160;8.214;2023-04-25T01:40:38;20.70;;;4.27;;
23266;SDS011;11802;53.160;8.214;2023-04-25T01:43:06;15.33;;;4.30;;
23266;SDS011;11802;53.160;8.214;2023-04-25T01:45:35;15.03;;;3.73;;
23266;SDS011;11802;53.160;8.214;2023-04-25T01:48:04;18.90;;;4.43;;
23266;SDS011;11802;53.160;8.214;2023-04-25T01:50:30;18.90;;;3.73;;
23266;SDS011;11802;53.160;8.214;2023-04-25T01:52:56;12.90;;;3.50;;
23266;SDS011;11802;53.160;8.214;2023-04-25T01:55:22;17.67;;;4.60;;
23266;SDS011;11802;53.160;8.214;2023-04-25T01:57:47;20.03;;;4.27;;
23266;SDS011;11802;53.160;8.214;2023-04-25T02:00:13;21.23;;;3.97;;
23266;SDS011;11802;53.160;8.214;2023-04-25T02:02:38;17.20;;;4.47;;
23266;SDS011;11802;53.160;8.214;2023-04-25T02:05:04;17.97;;;3.77;;
23266;SDS011;11802;53.160;8.214;2023-04-25T02:07:30;17.50;;;4.23;;
23266;SDS011;11802;53.160;8.214;2023-04-25T02:09:56;19.70;;;4.13;;
23266;SDS011;11802;53.160;8.214;2023-04-25T02:12:22;17.73;;;4.17;;
23266;SDS011;11802;53.160;8.214;2023-04-25T02:14:48;15.27;;;3.97;;
23266;SDS011;11802;53.160;8.214;2023-04-25T02:17:13;18.40;;;4.80;;
23266;SDS011;11802;53.160;8.214;2023-04-25T02:19:39;14.80;;;3.63;;
23266;SDS011;11802;53.160;8.214;2023-04-25T02:22:04;19.67;;;3.47;;
23266;SDS011;11802;53.160;8.214;2023-04-25T02:24:30;19.23;;;3.80;;
23266;SDS011;11802;53.160;8.214;2023-04-25T02:26:56;17.60;;;4.27;;
23266;SDS011;11802;53.160;8.214;2023-04-25T02:29:22;22.93;;;4.00;;
23266;SDS011;11802;53.160;8.214;2023-04-25T02:31:48;18.50;;;4.03;;
23266;SDS011;11802;53.160;8.214;2023-04-25T02:34:13;19.53;;;4.03;;
23266;SDS011;11802;53.160;8.214;2023-04-25T02:36:39;18.63;;;3.83;;
23266;SDS011;11802;53.160;8.214;2023-04-25T02:39:04;21.00;;;3.57;;
23266;SDS011;11802;53.160;8.214;2023-04-25T02:41:30;13.77;;;4.67;;
23266;SDS011;11802;53.160;8.214;2023-04-25T02:43:56;20.67;;;4.00;;
23266;SDS011;11802;53.160;8.214;2023-04-25T02:46:21;16.27;;;3.90;;
23266;SDS011;11802;53.160;8.214;2023-04-25T02:48:47;16.77;;;4.13;;
23266;SDS011;11802;53.160;8.214;2023-04-25T02:51:12;17.67;;;3.47;;
23266;SDS011;11802;53.160;8.214;2023-04-25T02:53:38;14.50;;;3.57;;
23266;SDS011;11802;53.160;8.214;2023-04-25T02:56:04;18.30;;;4.27;;
23266;SDS011;11802;53.160;8.214;2023-04-25T02:58:30;11.23;;;2.90;;
23266;SDS011;11802;53.160;8.214;2023-04-25T03:00:55;24.63;;;3.43;;
23266;SDS011;11802;53.160;8.214;2023-04-25T03:03:21;12.53;;;3.30;;
23266;SDS011;11802;53.160;8.214;2023-04-25T03:05:48;13.63;;;3.13;;
23266;SDS011;11802;53.160;8.214;2023-04-25T03:08:15;17.00;;;3.37;;
23266;SDS011;11802;53.160;8.214;2023-04-25T03:10:41;14.63;;;3.17;;
23266;SDS011;11802;53.160;8.214;2023-04-25T03:13:06;19.43;;;3.50;;
23266;SDS011;11802;53.160;8.214;2023-04-25T03:15:32;13.23;;;3.07;;
23266;SDS011;11802;53.160;8.214;2023-04-25T03:17:58;14.67;;;3.17;;
23266;SDS011;11802;53.160;8.214;2023-04-25T03:20:23;14.63;;;3.50;;
23266;SDS011;11802;53.160;8.214;2023-04-25T03:22:49;15.27;;;3.60;;
23266;SDS011;11802;53.160;8.214;2023-04-25T03:25:15;15.27;;;3.07;;
23266;SDS011;11802;53.160;8.214;2023-04-25T03:27:40;14.37;;;2.80;;
23266;SDS011;11802;53.160;8.214;2023-04-25T03:30:06;15.77;;;3.30;;
23266;SDS011;11802;53.160;8.214;2023-04-25T03:32:33;14.17;;;3.40;;
23266;SDS011;11802;53.160;8.214;2023-04-25T03:34:59;19.17;;;4.03;;
23266;SDS011;11802;53.160;8.214;2023-04-25T03:37:25;11.33;;;2.77;;
23266;SDS011;11802;53.160;8.214;2023-04-25T03:39:50;14.43;;;3.57;;
23266;SDS011;11802;53.160;8.214;2023-04-25T03:42:16;16.67;;;3.70;;
23266;SDS011;11802;53.160;8.214;2023-04-25T03:44:42;16.77;;;3.00;;
23266;SDS011;11802;53.160;8.214;2023-04-25T03:47:08;14.90;;;4.13;;
23266;SDS011;11802;53.160;8.214;2023-04-25T03:49:34;13.37;;;3.03;;
23266;SDS011;11802;53.160;8.214;2023-04-25T03:52:00;11.80;;;3.20;;
23266;SDS011;11802;53.160;8.214;2023-04-25T03:54:26;15.67;;;3.27;;
23266;SDS011;11802;53.160;8.214;2023-04-25T03:56:52;13.73;;;3.20;;
23266;SDS011;11802;53.160;8.214;2023-04-25T03:59:17;9.13;;;2.97;;
23266;SDS011;11802;53.160;8.214;2023-04-25T04:01:43;17.43;;;3.00;;
23266;SDS011;11802;53.160;8.214;2023-04-25T04:04:08;16.47;;;3.33;;
23266;SDS011;11802;53.160;8.214;2023-04-25T04:06:34;13.13;;;3.00;;
23266;SDS011;11802;53.160;8.214;2023-04-25T04:08:59;13.70;;;2.70;;
23266;SDS011;11802;53.160;8.214;2023-04-25T04:11:25;17.07;;;2.83;;
23266;SDS011;11802;53.160;8.214;2023-04-25T04:13:51;15.87;;;3.00;;
23266;SDS011;11802;53.160;8.214;2023-04-25T04:16:16;11.80;;;2.60;;
23266;SDS011;11802;53.160;8.214;2023-04-25T04:18:42;9.93;;;2.83;;
23266;SDS011;11802;53.160;8.214;2023-04-25T04:21:07;15.87;;;3.50;;
23266;SDS011;11802;53.160;8.214;2023-04-25T04:23:33;12.40;;;3.00;;
23266;SDS011;11802;53.160;8.214;2023-04-25T04:25:59;17.67;;;3.00;;
23266;SDS011;11802;53.160;8.214;2023-04-25T04:28:25;16.23;;;2.73;;
23266;SDS011;11802;53.160;8.214;2023-04-25T04:30:51;13.10;;;2.50;;
23266;SDS011;11802;53.160;8.214;2023-04-25T04:33:17;15.10;;;2.90;;
23266;SDS011;11802;53.160;8.214;2023-04-25T04:35:46;11.33;;;2.60;;
23266;SDS011;11802;53.160;8.214;2023-04-25T04:38:12;9.27;;;2.43;;
23266;SDS011;11802;53.160;8.214;2023-04-25T04:40:40;11.33;;;2.30;;
23266;SDS011;11802;53.160;8.214;2023-04-25T04:43:06;12.30;;;2.50;;
23266;SDS011;11802;53.160;8.214;2023-04-25T04:45:33;15.13;;;2.37;;
23266;SDS011;11802;53.160;8.214;2023-04-25T04:47:59;7.93;;;2.73;;
23266;SDS011;11802;53.160;8.214;2023-04-25T04:50:24;13.27;;;2.93;;
23266;SDS011;11802;53.160;8.214;2023-04-25T04:52:51;10.63;;;2.43;;
23266;SDS011;11802;53.160;8.214;2023-04-25T04:55:17;11.43;;;2.60;;
23266;SDS011;11802;53.160;8.214;2023-04-25T04:57:42;14.30;;;3.80;;
23266;SDS011;11802;53.160;8.214;2023-04-25T05:00:08;14.03;;;2.60;;
23266;SDS011;11802;53.160;8.214;2023-04-25T05:02:36;7.73;;;2.00;;
23266;SDS011;11802;53.160;8.214;2023-04-25T05:05:05;14.10;;;4.90;;
23266;SDS011;11802;53.160;8.214;2023-04-25T05:07:31;15.87;;;2.70;;
23266;SDS011;11802;53.160;8.214;2023-04-25T05:09:56;10.23;;;2.47;;
23266;SDS011;11802;53.160;8.214;2023-04-25T05:12:22;9.20;;;2.90;;
23266;SDS011;11802;53.160;8.214;2023-04-25T05:14:47;12.93;;;3.33;;
23266;SDS011;11802;53.160;8.214;2023-04-25T05:17:13;11.07;;;2.33;;
23266;SDS011;11802;53.160;8.214;2023-04-25T05:19:38;10.77;;;2.30;;
23266;SDS011;11802;53.160;8.214;2023-04-25T05:22:04;15.23;;;2.63;;
23266;SDS011;11802;53.160;8.214;2023-04-25T05:24:30;10.23;;;3.10;;
23266;SDS011;11802;53.160;8.214;2023-04-25T05:26:55;13.90;;;3.10;;
23266;SDS011;11802;53.160;8.214;2023-04-25T05:29:21;9.53;;;2.87;;
23266;SDS011;11802;53.160;8.214;2023-04-25T05:31:47;8.33;;;2.57;;
23266;SDS011;11802;53.160;8.214;2023-04-25T05:34:13;14.93;;;2.77;;
23266;SDS011;11802;53.160;8.214;2023-04-25T05:36:38;15.17;;;2.70;;
23266;SDS011;11802;53.160;8.214;2023-04-25T05:39:04;8.20;;;2.17;;
23266;SDS011;11802;53.160;8.214;2023-04-25T05:41:31;6.70;;;1.90;;
23266;SDS011;11802;53.160;8.214;2023-04-25T05:43:56;6.40;;;2.30;;
23266;SDS011;11802;53.160;8.214;2023-04-25T05:46:22;12.17;;;2.40;;
23266;SDS011;11802;53.160;8.214;2023-04-25T05:48:47;8.80;;;2.10;;
23266;SDS011;11802;53.160;8.214;2023-04-25T05:51:13;11.50;;;3.73;;
23266;SDS011;11802;53.160;8.214;2023-04-25T05:53:38;7.93;;;1.83;;
23266;SDS011;11802;53.160;8.214;2023-04-25T05:56:04;11.47;;;2.63;;
23266;SDS011;11802;53.160;8.214;2023-04-25T05:58:30;15.57;;;3.80;;
23266;SDS011;11802;53.160;8.214;2023-04-25T06:00:55;13.03;;;2.20;;
23266;SDS011;11802;53.160;8.214;2023-04-25T06:03:21;9.00;;;2.00;;
23266;SDS011;11802;53.160;8.214;2023-04-25T06:05:47;11.57;;;3.23;;
23266;SDS011;11802;53.160;8.214;2023-04-25T06:08:13;12.27;;;2.97;;
23266;SDS011;11802;53.160;8.214;2023-04-25T06:10:38;7.93;;;2.03;;
23266;SDS011;11802;53.160;8.214;2023-04-25T06:13:04;11.47;;;2.67;;
23266;SDS011;11802;53.160;8.214;2023-04-25T06:15:30;10.27;;;1.90;;
23266;SDS011;11802;53.160;8.214;2023-04-25T06:17:57;8.57;;;1.80;;
23266;SDS011;11802;53.160;8.214;2023-04-25T06:20:26;6.37;;;1.90;;
23266;SDS011;11802;53.160;8.214;2023-04-25T06:22:52;10.20;;;2.15;;
23266;SDS011;11802;53.160;8.214;2023-04-25T06:25:17;7.43;;;2.25;;
23266;SDS011;11802;53.160;8.214;2023-04-25T06:27:46;5.32;;;2.00;;
23266;SDS011;11802;53.160;8.214;2023-04-25T06:30:11;8.02;;;2.40;;
23266;SDS011;11802;53.160;8.214;2023-04-25T06:32:40;9.70;;;2.20;;
23266;SDS011;11802;53.160;8.214;2023-04-25T06:35:06;11.63;;;2.22;;
23266;SDS011;11802;53.160;8.214;2023-04-25T06:37:32;8.90;;;1.95;;
23266;SDS011;11802;53.160;8.214;2023-04-25T06:39:57;7.30;;;1.52;;
23266;SDS011;11802;53.160;8.214;2023-04-25T06:42:23;10.10;;;2.00;;
23266;SDS011;11802;53.160;8.214;2023-04-25T06:44:49;6.25;;;1.58;;
23266;SDS011;11802;53.160;8.214;2023-04-25T06:47:14;9.80;;;2.28;;
23266;SDS011;11802;53.160;8.214;2023-04-25T06:49:40;7.28;;;2.17;;
23266;SDS011;11802;53.160;8.214;2023-04-25T06:52:06;6.70;;;1.40;;
23266;SDS011;11802;53.160;8.214;2023-04-25T06:54:33;9.13;;;1.77;;
23266;SDS011;11802;53.160;8.214;2023-04-25T06:56:58;6.32;;;1.45;;
23266;SDS011;11802;53.160;8.214;2023-04-25T06:59:25;7.78;;;1.95;;
23266;SDS011;11802;53.160;8.214;2023-04-25T07:01:51;8.75;;;2.20;;
23266;SDS011;11802;53.160;8.214;2023-04-25T07:04:16;5.90;;;1.65;;
23266;SDS011;11802;53.160;8.214;2023-04-25T07:06:42;8.45;;;1.63;;
23266;SDS011;11802;53.160;8.214;2023-04-25T07:09:08;8.38;;;1.90;;
23266;SDS011;11802;53.160;8.214;2023-04-25T07:11:37;6.85;;;1.65;;
23266;SDS011;11802;53.160;8.214;2023-04-25T07:14:03;9.38;;;1.67;;
23266;SDS011;11802;53.160;8.214;2023-04-25T07:16:29;8.05;;;1.30;;
23266;SDS011;11802;53.160;8.214;2023-04-25T07:18:54;7.05;;;1.77;;
23266;SDS011;11802;53.160;8.214;2023-04-25T07:21:20;9.38;;;2.20;;
23266;SDS011;11802;53.160;8.214;2023-04-25T07:23:46;7.47;;;1.77;;
23266;SDS011;11802;53.160;8.214;2023-04-25T07:26:12;8.90;;;1.67;;
23266;SDS011;11802;53.160;8.214;2023-04-25T07:28:38;5.82;;;1.70;;
23266;SDS011;11802;53.160;8.214;2023-04-25T07:31:10;9.27;;;1.52;;
23266;SDS011;11802;53.160;8.214;2023-04-25T07:33:43;8.13;;;2.28;;
23266;SDS011;11802;53.160;8.214;2023-04-25T07:36:10;8.88;;;2.20;;
23266;SDS011;11802;53.160;8.214;2023-04-25T07:38:36;9.52;;;1.83;;
23266;SDS011;11802;53.160;8.214;2023-04-25T07:41:02;8.27;;;1.97;;
23266;SDS011;11802;53.160;8.214;2023-04-25T07:43:27;9.43;;;2.10;;
23266;SDS011;11802;53.160;8.214;2023-04-25T07:45:53;7.20;;;1.60;;
23266;SDS011;11802;53.160;8.214;2023-04-25T07:48:18;5.80;;;1.70;;
23266;SDS011;11802;53.160;8.214;2023-04-25T07:50:44;6.67;;;1.87;;
23266;SDS011;11802;53.160;8.214;2023-04-25T07:53:10;4.57;;;1.10;;
23266;SDS011;11802;53.160;8.214;2023-04-25T07:55:36;5.77;;;1.30;;
23266;SDS011;11802;53.160;8.214;2023-04-25T07:58:05;4.67;;;0.97;;
23266;SDS011;11802;53.160;8.214;2023-04-25T08:00:33;7.97;;;1.40;;
23266;SDS011;11802;53.160;8.214;2023-04-25T08:02:59;3.40;;;1.10;;
23266;SDS011;11802;53.160;8.214;2023-04-25T08:05:25;4.87;;;1.13;;
23266;SDS011;11802;53.160;8.214;2023-04-25T08:07:50;4.53;;;1.10;;
23266;SDS011;11802;53.160;8.214;2023-04-25T08:10:16;2.20;;;0.80;;
23266;SDS011;11802;53.160;8.214;2023-04-25T08:12:41;4.23;;;1.00;;
23266;SDS011;11802;53.160;8.214;2023-04-25T08:15:07;4.47;;;1.30;;
23266;SDS011;11802;53.160;8.214;2023-04-25T08:17:33;4.73;;;1.60;;
23266;SDS011;11802;53.160;8.214;2023-04-25T08:19:59;4.47;;;1.43;;
23266;SDS011;11802;53.160;8.214;2023-04-25T08:22:25;4.87;;;1.17;;
23266;SDS011;11802;53.160;8.214;2023-04-25T08:24:51;6.00;;;1.50;;
23266;SDS011;11802;53.160;8.214;2023-04-25T08:27:17;8.63;;;1.00;;
23266;SDS011;11802;53.160;8.214;2023-04-25T08:29:43;8.35;;;1.40;;
23266;SDS011;11802;53.160;8.214;2023-04-25T08:32:09;3.90;;;0.82;;
23266;SDS011;11802;53.160;8.214;2023-04-25T08:34:35;6.10;;;1.40;;
23266;SDS011;11802;53.160;8.214;2023-04-25T08:37:02;7.70;;;1.67;;
23266;SDS011;11802;53.160;8.214;2023-04-25T08:39:29;10.50;;;1.55;;
23266;SDS011;11802;53.160;8.214;2023-04-25T08:41:54;6.68;;;1.50;;
23266;SDS011;11802;53.160;8.214;2023-04-25T08:44:21;5.70;;;1.20;;
23266;SDS011;11802;53.160;8.214;2023-04-25T08:46:48;2.23;;;0.83;;
23266;SDS011;11802;53.160;8.214;2023-04-25T08:49:14;7.17;;;1.97;;
23266;SDS011;11802;53.160;8.214;2023-04-25T08:51:46;5.77;;;1.03;;
23266;SDS011;11802;53.160;8.214;2023-04-25T08:54:12;5.43;;;1.30;;
23266;SDS011;11802;53.160;8.214;2023-04-25T08:56:45;4.30;;;1.03;;
23266;SDS011;11802;53.160;8.214;2023-04-25T08:59:12;9.43;;;1.80;;
23266;SDS011;11802;53.160;8.214;2023-04-25T09:01:39;6.50;;;1.43;;
23266;SDS011;11802;53.160;8.214;2023-04-25T09:04:05;7.05;;;1.75;;
23266;SDS011;11802;53.160;8.214;2023-04-25T09:06:31;7.55;;;1.73;;
23266;SDS011;11802;53.160;8.214;2023-04-25T09:09:03;4.95;;;1.40;;
23266;SDS011;11802;53.160;8.214;2023-04-25T09:11:30;8.57;;;1.90;;
23266;SDS011;11802;53.160;8.214;2023-04-25T09:19:28;5.10;;;1.10;;
23266;SDS011;11802;53.160;8.214;2023-04-25T09:21:57;4.60;;;1.48;;
23266;SDS011;11802;53.160;8.214;2023-04-25T09:24:37;6.35;;;1.77;;
23266;SDS011;11802;53.160;8.214;2023-04-25T09:27:05;5.88;;;1.50;;
23266;SDS011;11802;53.160;8.214;2023-04-25T09:29:39;5.53;;;1.23;;
23266;SDS011;11802;53.160;8.214;2023-04-25T09:32:19;6.15;;;1.40;;
23266;SDS011;11802;53.160;8.214;2023-04-25T09:34:47;5.57;;;1.17;;
23266;SDS011;11802;53.160;8.214;2023-04-25T09:37:19;9.27;;;1.27;;
23266;SDS011;11802;53.160;8.214;2023-04-25T09:39:48;5.43;;;1.10;;
23266;SDS011;11802;53.160;8.214;2023-04-25T09:42:26;4.97;;;1.20;;
23266;SDS011;11802;53.160;8.214;2023-04-25T09:44:54;8.00;;;1.30;;
23266;SDS011;11802;53.160;8.214;2023-04-25T09:47:22;7.30;;;1.33;;
23266;SDS011;11802;53.160;8.214;2023-04-25T09:49:50;7.27;;;1.33;;
23266;SDS011;11802;53.160;8.214;2023-04-25T09:52:20;7.33;;;1.17;;
23266;SDS011;11802;53.160;8.214;2023-04-25T09:54:47;6.23;;;1.30;;
23266;SDS011;11802;53.160;8.214;2023-04-25T09:57:15;4.17;;;1.30;;
23266;SDS011;11802;53.160;8.214;2023-04-25T09:59:54;6.57;;;1.43;;
23266;SDS011;11802;53.160;8.214;2023-04-25T10:02:21;6.50;;;0.93;;
23266;SDS011;11802;53.160;8.214;2023-04-25T10:04:51;3.87;;;1.10;;
23266;SDS011;11802;53.160;8.214;2023-04-25T10:07:22;4.57;;;1.10;;
23266;SDS011;11802;53.160;8.214;2023-04-25T10:09:55;3.43;;;1.20;;
23266;SDS011;11802;53.160;8.214;2023-04-25T10:12:25;9.70;;;1.43;;
23266;SDS011;11802;53.160;8.214;2023-04-25T10:14:52;5.77;;;1.20;;
23266;SDS011;11802;53.160;8.214;2023-04-25T10:17:18;5.23;;;1.30;;
23266;SDS011;11802;53.160;8.214;2023-04-25T10:19:46;5.57;;;1.27;;
23266;SDS011;11802;53.160;8.214;2023-04-25T10:22:20;4.53;;;1.00;;
23266;SDS011;11802;53.160;8.214;2023-04-25T10:24:53;6.33;;;1.40;;
23266;SDS011;11802;53.160;8.214;2023-04-25T10:27:21;5.25;;;1.33;;
23266;SDS011;11802;53.160;8.214;2023-04-25T10:29:52;6.50;;;1.33;;
23266;SDS011;11802;53.160;8.214;2023-04-25T10:32:26;12.80;;;1.35;;
23266;SDS011;11802;53.160;8.214;2023-04-25T10:34:51;11.45;;;1.60;;
23266;SDS011;11802;53.160;8.214;2023-04-25T10:37:17;5.82;;;1.30;;
23266;SDS011;11802;53.160;8.214;2023-04-25T10:39:44;6.43;;;1.20;;
23266;SDS011;11802;53.160;8.214;2023-04-25T10:42:11;6.22;;;1.42;;
23266;SDS011;11802;53.160;8.214;2023-04-25T10:44:37;11.38;;;2.70;;
23266;SDS011;11802;53.160;8.214;2023-04-25T10:47:06;6.25;;;1.48;;
23266;SDS011;11802;53.160;8.214;2023-04-25T10:49:35;6.97;;;1.92;;
23266;SDS011;11802;53.160;8.214;2023-04-25T10:52:14;10.33;;;3.33;;
23266;SDS011;11802;53.160;8.214;2023-04-25T10:54:48;5.73;;;1.50;;
23266;SDS011;11802;53.160;8.214;2023-04-25T11:00:15;9.10;;;2.60;;
23266;SDS011;11802;53.160;8.214;2023-04-25T11:02:43;7.50;;;1.80;;
23266;SDS011;11802;53.160;8.214;2023-04-25T11:05:16;6.40;;;1.40;;
23266;SDS011;11802;53.160;8.214;2023-04-25T11:07:54;6.40;;;1.40;;
23266;SDS011;11802;53.160;8.214;2023-04-25T11:10:30;3.72;;;1.30;;
23266;SDS011;11802;53.160;8.214;2023-04-25T11:12:58;6.63;;;1.58;;
23266;SDS011;11802;53.160;8.214;2023-04-25T11:15:25;7.63;;;1.52;;
23266;SDS011;11802;53.160;8.214;2023-04-25T11:17:54;10.38;;;1.50;;
23266;SDS011;11802;53.160;8.214;2023-04-25T11:20:20;6.65;;;1.08;;
23266;SDS011;11802;53.160;8.214;2023-04-25T11:22:47;4.43;;;1.33;;
23266;SDS011;11802;53.160;8.214;2023-04-25T11:25:14;6.45;;;1.17;;
23266;SDS011;11802;53.160;8.214;2023-04-25T11:27:51;6.28;;;1.60;;
23266;SDS011;11802;53.160;8.214;2023-04-25T11:30:22;8.35;;;1.50;;
23266;SDS011;11802;53.160;8.214;2023-04-25T11:32:48;4.55;;;1.40;;
23266;SDS011;11802;53.160;8.214;2023-04-25T11:35:15;6.53;;;1.30;;
23266;SDS011;11802;53.160;8.214;2023-04-25T11:37:41;5.55;;;1.52;;
23266;SDS011;11802;53.160;8.214;2023-04-25T11:40:08;4.10;;;1.10;;
23266;SDS011;11802;53.160;8.214;2023-04-25T11:42:36;5.47;;;1.47;;
23266;SDS011;11802;53.160;8.214;2023-04-25T11:45:08;7.43;;;1.10;;
23266;SDS011;11802;53.160;8.214;2023-04-25T11:47:34;4.33;;;1.03;;
23266;SDS011;11802;53.160;8.214;2023-04-25T11:50:04;6.07;;;1.20;;
23266;SDS011;11802;53.160;8.214;2023-04-25T11:52:43;5.03;;;1.27;;
23266;SDS011;11802;53.160;8.214;2023-04-25T11:55:14;5.27;;;1.27;;
23266;SDS011;11802;53.160;8.214;2023-04-25T11:57:41;7.93;;;1.67;;
23266;SDS011;11802;53.160;8.214;2023-04-25T12:02:41;7.47;;;1.75;;
23266;SDS011;11802;53.160;8.214;2023-04-25T12:05:13;7.40;;;1.45;;
23266;SDS011;11802;53.160;8.214;2023-04-25T12:07:40;7.90;;;1.45;;
23266;SDS011;11802;53.160;8.214;2023-04-25T12:10:09;3.60;;;0.90;;
23266;SDS011;11802;53.160;8.214;2023-04-25T12:12:37;9.02;;;1.70;;
23266;SDS011;11802;53.160;8.214;2023-04-25T12:15:24;6.27;;;1.23;;
23266;SDS011;11802;53.160;8.214;2023-04-25T12:17:51;3.75;;;0.95;;
23266;SDS011;11802;53.160;8.214;2023-04-25T12:20:19;4.97;;;1.13;;
23266;SDS011;11802;53.160;8.214;2023-04-25T12:22:48;6.10;;;1.38;;
23266;SDS011;11802;53.160;8.214;2023-04-25T12:25:34;7.80;;;1.20;;
23266;SDS011;11802;53.160;8.214;2023-04-25T12:28:16;3.22;;;0.77;;
23266;SDS011;11802;53.160;8.214;2023-04-25T12:31:00;3.88;;;0.90;;
23266;SDS011;11802;53.160;8.214;2023-04-25T12:33:36;4.00;;;1.30;;
23266;SDS011;11802;53.160;8.214;2023-04-25T12:36:03;5.35;;;0.82;;
23266;SDS011;11802;53.160;8.214;2023-04-25T12:38:37;7.10;;;1.40;;
23266;SDS011;11802;53.160;8.214;2023-04-25T12:41:04;7.35;;;1.75;;
23266;SDS011;11802;53.160;8.214;2023-04-25T12:43:30;5.53;;;1.08;;
23266;SDS011;11802;53.160;8.214;2023-04-25T12:45:56;5.10;;;1.20;;
23266;SDS011;11802;53.160;8.214;2023-04-25T12:48:22;2.70;;;0.75;;
23266;SDS011;11802;53.160;8.214;2023-04-25T12:50:48;3.45;;;0.95;;
23266;SDS011;11802;53.160;8.214;2023-04-25T12:53:21;3.00;;;1.45;;
23266;SDS011;11802;53.160;8.214;2023-04-25T12:55:47;2.72;;;1.00;;
23266;SDS011;11802;53.160;8.214;2023-04-25T12:58:17;3.40;;;0.90;;
23266;SDS011;11802;53.160;8.214;2023-04-25T13:00:44;2.38;;;1.02;;
23266;SDS011;11802;53.160;8.214;2023-04-25T13:03:10;3.85;;;0.80;;
23266;SDS011;11802;53.160;8.214;2023-04-25T13:08:37;4.87;;;1.00;;
23266;SDS011;11802;53.160;8.214;2023-04-25T13:11:04;4.47;;;1.30;;
23266;SDS011;11802;53.160;8.214;2023-04-25T13:13:31;3.00;;;1.00;;
23266;SDS011;11802;53.160;8.214;2023-04-25T13:15:57;3.57;;;1.00;;
23266;SDS011;11802;53.160;8.214;2023-04-25T13:18:23;4.73;;;1.40;;
23266;SDS011;11802;53.160;8.214;2023-04-25T13:20:51;6.70;;;1.27;;
23266;SDS011;11802;53.160;8.214;2023-04-25T13:23:17;4.57;;;1.10;;
23266;SDS011;11802;53.160;8.214;2023-04-25T13:25:44;2.07;;;0.80;;
23266;SDS011;11802;53.160;8.214;2023-04-25T13:28:09;3.00;;;0.93;;
23266;SDS011;11802;53.160;8.214;2023-04-25T13:30:35;4.47;;;0.80;;
23266;SDS011;11802;53.160;8.214;2023-04-25T13:33:01;2.07;;;0.87;;
23266;SDS011;11802;53.160;8.214;2023-04-25T13:35:28;4.40;;;0.90;;
23266;SDS011;11802;53.160;8.214;2023-04-25T13:37:55;8.15;;;1.20;;
23266;SDS011;11802;53.160;8.214;2023-04-25T13:40:21;5.18;;;1.00;;
23266;SDS011;11802;53.160;8.214;2023-04-25T13:42:46;7.82;;;2.38;;
23266;SDS011;11802;53.160;8.214;2023-04-25T13:45:12;9.00;;;1.80;;
23266;SDS011;11802;53.160;8.214;2023-04-25T13:47:38;7.47;;;1.48;;
23266;SDS011;11802;53.160;8.214;2023-04-25T13:50:04;6.22;;;1.27;;
23266;SDS011;11802;53.160;8.214;2023-04-25T13:52:30;3.17;;;0.98;;
23266;SDS011;11802;53.160;8.214;2023-04-25T13:54:56;4.80;;;1.17;;
23266;SDS011;11802;53.160;8.214;2023-04-25T13:57:22;4.73;;;1.43;;
23266;SDS011;11802;53.160;8.214;2023-04-25T13:59:48;5.73;;;1.43;;
23266;SDS011;11802;53.160;8.214;2023-04-25T14:02:13;7.57;;;1.50;;
23266;SDS011;11802;53.160;8.214;2023-04-25T14:04:40;5.65;;;1.00;;
23266;SDS011;11802;53.160;8.214;2023-04-25T14:07:06;5.00;;;1.00;;
23266;SDS011;11802;53.160;8.214;2023-04-25T14:09:31;4.65;;;1.33;;
23266;SDS011;11802;53.160;8.214;2023-04-25T14:11:57;2.97;;;0.80;;
23266;SDS011;11802;53.160;8.214;2023-04-25T14:14:22;7.28;;;1.23;;
23266;SDS011;11802;53.160;8.214;2023-04-25T14:16:48;5.10;;;1.10;;
23266;SDS011;11802;53.160;8.214;2023-04-25T14:19:15;9.52;;;1.58;;
23266;SDS011;11802;53.160;8.214;2023-04-25T14:21:41;4.63;;;1.30;;
23266;SDS011;11802;53.160;8.214;2023-04-25T14:24:10;4.95;;;1.38;;
23266;SDS011;11802;53.160;8.214;2023-04-25T14:26:36;7.20;;;1.60;;
23266;SDS011;11802;53.160;8.214;2023-04-25T14:29:05;5.45;;;1.60;;
23266;SDS011;11802;53.160;8.214;2023-04-25T14:31:32;8.77;;;1.70;;
23266;SDS011;11802;53.160;8.214;2023-04-25T14:33:58;6.50;;;1.33;;
23266;SDS011;11802;53.160;8.214;2023-04-25T14:36:24;3.60;;;0.90;;
23266;SDS011;11802;53.160;8.214;2023-04-25T14:38:51;5.22;;;1.00;;
23266;SDS011;11802;53.160;8.214;2023-04-25T14:41:17;6.55;;;1.35;;
23266;SDS011;11802;53.160;8.214;2023-04-25T14:43:43;8.15;;;1.25;;
23266;SDS011;11802;53.160;8.214;2023-04-25T14:46:09;9.20;;;1.38;;
23266;SDS011;11802;53.160;8.214;2023-04-25T14:48:35;4.40;;;1.30;;
23266;SDS011;11802;53.160;8.214;2023-04-25T14:51:01;5.70;;;1.30;;
23266;SDS011;11802;53.160;8.214;2023-04-25T14:53:27;7.13;;;1.47;;
23266;SDS011;11802;53.160;8.214;2023-04-25T14:55:53;7.00;;;1.40;;